createdAt,value
2019-05-02T00:01:45.246Z,70.81
2019-05-02T00:04:20.135Z,70.92
2019-05-02T00:07:03.581Z,70.86
2019-05-02T00:09:34.626Z,71.07
2019-05-02T00:12:05.760Z,71.85
2019-05-02T00:14:36.226Z,71.43
2019-05-02T00:17:06.693Z,71.36
2019-05-02T00:19:37.544Z,71.36
2019-05-02T00:22:12.203Z,71.71
2019-05-02T00:24:51.741Z,71.97
2019-05-02T00:27:20.989Z,72.86
2019-05-02T00:29:53.917Z,72.55
2019-05-02T00:32:22.443Z,72.47
2019-05-02T00:34:52.343Z,72.40
2019-05-02T00:37:24.697Z,72.58
2019-05-02T00:39:52.657Z,72.49
2019-05-02T00:42:22.463Z,72.45
2019-05-02T00:44:53.123Z,72.86
2019-05-02T00:47:35.427Z,72.24
2019-05-02T00:50:10.730Z,72.61
2019-05-02T00:52:36.751Z,73.35
2019-05-02T00:55:06.461Z,72.58
2019-05-02T00:57:35.768Z,73.09
2019-05-02T01:00:06.296Z,73.04
2019-05-02T01:02:41.979Z,73.04
2019-05-02T01:05:11.647Z,73.27
2019-05-02T01:07:41.022Z,73.42
2019-05-02T01:10:10.820Z,72.92
2019-05-02T01:12:44.395Z,72.95
2019-05-02T01:15:12.469Z,73.45
2019-05-02T01:17:41.758Z,73.44
2019-05-02T01:20:11.053Z,73.76
2019-05-02T01:22:40.332Z,73.39
2019-05-02T01:25:15.355Z,73.69
2019-05-02T01:27:46.570Z,74.50
2019-05-02T01:30:28.502Z,74.33
2019-05-02T01:33:07.769Z,74.01
2019-05-02T01:36:01.708Z,74.81
2019-05-02T01:38:35.599Z,74.48
2019-05-02T01:41:06.026Z,74.37
2019-05-02T01:43:35.331Z,74.88
2019-05-02T01:46:04.793Z,74.29
2019-05-02T01:48:34.108Z,75.26
2019-05-02T01:51:04.262Z,74.85
2019-05-02T01:53:35.855Z,74.69
2019-05-02T01:56:05.414Z,74.07
2019-05-02T01:58:34.748Z,73.58
2019-05-02T02:01:05.097Z,73.36
2019-05-02T02:03:34.403Z,73.82
2019-05-02T02:06:08.233Z,73.92
2019-05-02T02:08:34.752Z,73.93
2019-05-02T02:11:04.340Z,73.95
2019-05-02T02:13:36.432Z,74.17
2019-05-02T02:16:05.911Z,74.20
2019-05-02T02:18:39.173Z,74.54
2019-05-02T02:21:27.711Z,75.03
2019-05-02T02:24:04.905Z,75.01
2019-05-02T02:26:34.219Z,74.67
2019-05-02T02:29:07.912Z,74.94
2019-05-02T02:31:39.752Z,74.59
2019-05-02T02:34:05.514Z,73.96
2019-05-02T02:36:35.118Z,73.76
2019-05-02T02:39:13.452Z,74.77
2019-05-02T02:41:37.959Z,74.73
2019-05-02T02:44:23.021Z,74.99
2019-05-02T02:46:52.818Z,74.85
2019-05-02T02:49:24.623Z,74.77
2019-05-02T02:51:57.981Z,75.14
2019-05-02T02:54:24.267Z,74.86
2019-05-02T02:56:53.576Z,75.05
2019-05-02T02:59:26.136Z,75.29
2019-05-02T03:01:53.903Z,75.49
2019-05-02T03:04:23.175Z,76.02
2019-05-02T03:06:52.513Z,75.95
2019-05-02T03:09:26.860Z,75.73
2019-05-02T03:12:14.341Z,75.68
2019-05-02T03:14:49.389Z,76.00
2019-05-02T03:17:25.741Z,75.64
2019-05-02T03:19:54.516Z,75.95
2019-05-02T03:22:21.294Z,75.55
2019-05-02T03:24:50.566Z,76.03
2019-05-02T03:27:19.831Z,76.31
2019-05-02T03:29:49.528Z,76.28
2019-05-02T03:32:31.925Z,75.98
2019-05-02T03:34:54.255Z,76.49
2019-05-02T03:37:23.842Z,76.30
2019-05-02T03:39:57.213Z,75.96
2019-05-02T03:42:24.634Z,76.10
2019-05-02T03:44:56.273Z,75.75
2019-05-02T03:47:25.865Z,75.54
2019-05-02T03:49:55.127Z,75.62
2019-05-02T03:52:24.904Z,76.27
2019-05-02T03:54:54.206Z,76.27
2019-05-02T03:57:32.440Z,76.34
2019-05-02T03:59:54.817Z,76.12
2019-05-02T04:02:24.605Z,75.68
2019-05-02T04:04:59.968Z,75.06
2019-05-02T04:07:25.067Z,75.94
2019-05-02T04:09:54.546Z,76.34
2019-05-02T04:12:23.801Z,75.73
2019-05-02T04:14:55.974Z,75.51
2019-05-02T04:17:29.163Z,74.97
2019-05-02T04:19:58.269Z,75.44
2019-05-02T04:22:28.174Z,75.85
2019-05-02T04:24:57.462Z,75.98
2019-05-02T04:27:27.944Z,75.77
2019-05-02T04:30:10.222Z,75.34
2019-05-02T04:32:29.028Z,75.37
2019-05-02T04:34:58.328Z,75.48
2019-05-02T04:37:27.619Z,75.59
2019-05-02T04:39:58.923Z,75.24
2019-05-02T04:42:29.381Z,75.24
2019-05-02T04:45:14.181Z,74.84
2019-05-02T04:47:29.944Z,74.62
2019-05-02T04:49:59.290Z,74.91
2019-05-02T04:52:30.003Z,74.79
2019-05-02T04:55:14.834Z,74.35
2019-05-02T04:57:36.930Z,74.09
2019-05-02T05:00:08.419Z,73.97
2019-05-02T05:02:39.350Z,73.49
2019-05-02T05:05:09.563Z,73.79
2019-05-02T05:07:45.783Z,73.40
2019-05-02T05:10:12.530Z,73.04
2019-05-02T05:12:49.406Z,73.31
2019-05-02T05:15:33.893Z,72.82
2019-05-02T05:17:50.064Z,73.17
2019-05-02T05:20:20.534Z,72.78
2019-05-02T05:22:51.497Z,72.60
2019-05-02T05:25:27.865Z,72.28
2019-05-02T05:28:05.611Z,71.56
2019-05-02T05:30:31.390Z,71.56
2019-05-02T05:33:01.612Z,71.06
2019-05-02T05:35:32.922Z,70.66
2019-05-02T05:38:03.134Z,71.08
2019-05-02T05:40:33.509Z,70.69
2019-05-02T05:43:13.638Z,70.03
2019-05-02T05:45:48.712Z,69.79
2019-05-02T05:48:08.544Z,69.58
2019-05-02T05:50:41.484Z,69.95
2019-05-02T05:53:12.399Z,69.40
2019-05-02T05:55:44.786Z,69.61
2019-05-02T05:58:15.745Z,69.11
2019-05-02T06:00:53.740Z,69.16
2019-05-02T06:03:18.024Z,68.71
2019-05-02T06:05:48.968Z,68.08
2019-05-02T06:08:19.939Z,67.83
2019-05-02T06:10:49.673Z,67.57
2019-05-02T06:13:20.265Z,66.62
2019-05-02T06:16:01.525Z,66.76
2019-05-02T06:18:22.070Z,65.82
2019-05-02T06:20:53.323Z,65.30
2019-05-02T06:23:22.824Z,64.97
2019-05-02T06:25:53.880Z,64.28
2019-05-02T06:28:24.587Z,64.16
2019-05-02T06:30:54.104Z,62.79
2019-05-02T06:33:30.429Z,62.13
2019-05-02T06:36:00.975Z,61.35
2019-05-02T06:38:28.911Z,61.05
2019-05-02T06:41:01.992Z,60.70
2019-05-02T06:43:31.754Z,59.35
2019-05-02T06:46:01.290Z,57.93
2019-05-02T06:48:30.786Z,53.62
2019-05-02T06:51:00.347Z,52.72
2019-05-02T06:53:29.841Z,51.33
2019-05-02T06:56:00.280Z,51.38
2019-05-02T06:58:30.804Z,48.93
2019-05-02T07:01:00.492Z,49.68
2019-05-02T07:03:29.967Z,49.47
2019-05-02T07:06:02.716Z,51.84
2019-05-02T07:08:30.889Z,50.74
2019-05-02T07:11:03.192Z,49.26
2019-05-02T07:13:36.156Z,48.17
2019-05-02T07:16:37.478Z,46.49
2019-05-02T07:19:01.748Z,44.35
2019-05-02T07:21:31.216Z,41.40
2019-05-02T07:24:03.508Z,41.77
2019-05-02T07:26:34.724Z,36.16
2019-05-02T07:29:05.587Z,34.53
2019-05-02T07:31:34.993Z,33.41
2019-05-02T07:34:12.799Z,33.17
2019-05-02T07:36:39.259Z,38.39
2019-05-02T07:39:11.220Z,38.96
2019-05-02T07:41:41.810Z,35.72
2019-05-02T07:44:11.362Z,31.59
2019-05-02T07:46:51.107Z,31.09
2019-05-02T07:49:12.825Z,30.73
2019-05-02T07:51:42.361Z,31.55
2019-05-02T07:54:11.776Z,28.77
2019-05-02T07:56:41.412Z,28.29
2019-05-02T07:59:13.961Z,31.14
2019-05-02T08:01:45.036Z,29.35
2019-05-02T08:04:16.034Z,31.63
2019-05-02T08:06:46.430Z,33.81
2019-05-02T08:09:16.193Z,31.57
2019-05-02T08:11:46.880Z,31.35
2019-05-02T08:14:16.411Z,29.02
2019-05-02T08:16:45.774Z,28.34
2019-05-02T08:19:15.244Z,26.15
2019-05-02T08:21:44.865Z,25.93
2019-05-02T08:24:15.326Z,25.77
2019-05-02T08:26:58.282Z,23.64
2019-05-02T08:29:29.179Z,25.26
2019-05-02T08:31:59.703Z,23.05
2019-05-02T08:34:33.262Z,23.60
2019-05-02T08:37:04.595Z,24.61
2019-05-02T08:39:35.191Z,26.24
2019-05-02T08:42:06.371Z,23.75
2019-05-02T08:44:49.618Z,23.19
2019-05-02T08:47:18.437Z,23.29
2019-05-02T08:49:38.849Z,23.67
2019-05-02T08:52:09.928Z,24.78
2019-05-02T08:54:40.478Z,25.00
2019-05-02T08:57:10.942Z,25.20
2019-05-02T08:59:40.957Z,24.44
2019-05-02T09:02:10.500Z,25.58
2019-05-02T09:04:40.119Z,23.52
2019-05-02T09:07:11.159Z,24.37
2019-05-02T09:09:40.750Z,23.25
2019-05-02T09:12:14.971Z,25.95
2019-05-02T09:14:42.886Z,24.83
2019-05-02T09:17:16.401Z,24.74
2019-05-02T09:19:43.251Z,24.19
2019-05-02T09:22:16.676Z,25.93
2019-05-02T09:24:44.985Z,24.68
2019-05-02T09:27:16.066Z,24.66
2019-05-02T09:29:45.957Z,25.31
2019-05-02T09:32:17.144Z,26.14
2019-05-02T09:34:48.678Z,24.74
2019-05-02T09:37:18.117Z,23.70
2019-05-02T09:39:47.490Z,24.31
2019-05-02T09:42:19.053Z,24.82
2019-05-02T09:44:52.352Z,23.46
2019-05-02T09:47:27.326Z,23.94
2019-05-02T09:50:13.286Z,23.58
2019-05-02T09:52:44.171Z,24.17
2019-05-02T09:55:14.100Z,27.30
2019-05-02T09:57:44.848Z,27.90
2019-05-02T10:00:32.407Z,25.32
2019-05-02T10:02:58.577Z,28.86
2019-05-02T10:05:27.920Z,30.69
2019-05-02T10:08:02.040Z,30.81
2019-05-02T10:10:29.256Z,32.64
2019-05-02T10:12:58.597Z,31.97
2019-05-02T10:15:28.055Z,30.65
2019-05-02T10:18:08.769Z,30.22
2019-05-02T10:20:34.006Z,31.47
2019-05-02T10:22:59.354Z,33.47
2019-05-02T10:25:30.760Z,33.17
2019-05-02T10:28:01.961Z,33.11
2019-05-02T10:30:35.849Z,33.81
2019-05-02T10:33:04.009Z,31.96
2019-05-02T10:35:40.603Z,29.94
2019-05-02T10:38:09.404Z,29.50
2019-05-02T10:40:39.076Z,29.96
2019-05-02T10:43:11.746Z,29.98
2019-05-02T10:45:47.517Z,29.23
2019-05-02T10:48:24.738Z,28.78
2019-05-02T10:50:49.958Z,30.70
2019-05-02T10:53:19.295Z,31.40
2019-05-02T10:55:48.640Z,31.88
2019-05-02T10:58:17.938Z,32.99
2019-05-02T11:00:48.735Z,30.95
2019-05-02T11:03:27.716Z,30.95
2019-05-02T11:06:03.626Z,31.68
2019-05-02T11:08:46.025Z,31.27
2019-05-02T11:11:16.110Z,30.77
2019-05-02T11:14:01.032Z,30.57
2019-05-02T11:16:42.712Z,31.83
2019-05-02T11:19:17.687Z,32.42
2019-05-02T11:21:56.338Z,32.88
2019-05-02T11:24:22.419Z,32.92
2019-05-02T11:26:52.806Z,31.52
2019-05-02T11:29:22.903Z,32.07
2019-05-02T11:31:52.260Z,32.50
2019-05-02T11:34:22.070Z,33.82
2019-05-02T11:36:52.645Z,33.70
2019-05-02T11:39:31.638Z,34.04
2019-05-02T11:41:53.374Z,34.22
2019-05-02T11:44:24.149Z,34.77
2019-05-02T11:46:53.498Z,34.28
2019-05-02T11:49:22.944Z,33.88
2019-05-02T11:51:56.917Z,33.22
2019-05-02T11:54:23.237Z,33.76
2019-05-02T11:56:53.596Z,34.51
2019-05-02T11:59:27.994Z,35.00
2019-05-02T12:02:17.458Z,35.22
2019-05-02T12:04:47.236Z,36.60
2019-05-02T12:07:16.014Z,36.93
2019-05-02T12:09:55.179Z,36.93
2019-05-02T12:12:16.453Z,36.49
2019-05-02T12:14:45.777Z,36.12
2019-05-02T12:17:15.087Z,35.24
2019-05-02T12:19:44.407Z,35.21
2019-05-02T12:22:16.902Z,35.76
2019-05-02T12:24:45.434Z,35.01
2019-05-02T12:27:14.875Z,32.60
2019-05-02T12:29:44.159Z,32.60
2019-05-02T12:32:15.564Z,34.59
2019-05-02T12:34:44.717Z,34.53
2019-05-02T12:37:14.038Z,34.44
2019-05-02T12:39:43.342Z,33.48
2019-05-02T12:42:13.166Z,32.08
2019-05-02T12:44:42.832Z,33.66
2019-05-02T12:47:12.105Z,32.66
2019-05-02T12:49:42.837Z,32.85
2019-05-02T12:52:12.959Z,33.19
2019-05-02T12:54:42.398Z,33.56
2019-05-02T12:57:12.517Z,34.27
2019-05-02T12:59:41.955Z,33.94
2019-05-02T13:02:17.400Z,33.74
2019-05-02T13:04:48.324Z,33.80
2019-05-02T13:07:17.591Z,34.30
2019-05-02T13:09:46.947Z,33.50
2019-05-02T13:12:22.770Z,32.27
2019-05-02T13:14:53.277Z,31.12
2019-05-02T13:17:23.713Z,30.88
2019-05-02T13:19:57.054Z,31.28
2019-05-02T13:22:52.692Z,32.14
2019-05-02T13:25:27.328Z,32.59
2019-05-02T13:27:53.873Z,32.60
2019-05-02T13:30:48.542Z,32.92
2019-05-02T13:33:27.343Z,33.04
2019-05-02T13:35:59.195Z,32.97
2019-05-02T13:38:28.702Z,33.57
2019-05-02T13:40:58.364Z,33.47
2019-05-02T13:43:32.429Z,33.40
2019-05-02T13:46:12.836Z,33.84
2019-05-02T13:48:44.524Z,33.74
2019-05-02T13:51:13.899Z,34.22
2019-05-02T13:54:08.186Z,34.43
2019-05-02T13:56:52.386Z,34.43
2019-05-02T13:59:22.525Z,35.30
2019-05-02T14:01:53.845Z,35.36
2019-05-02T14:04:23.609Z,35.88
2019-05-02T14:06:53.143Z,35.88
2019-05-02T14:09:44.589Z,35.63
2019-05-02T14:12:43.503Z,35.43
2019-05-02T14:15:13.973Z,36.58
2019-05-02T14:17:43.220Z,35.86
2019-05-02T14:20:13.759Z,35.86
2019-05-02T14:22:44.464Z,35.64
2019-05-02T14:25:13.875Z,35.97
2019-05-02T14:27:46.935Z,35.82
2019-05-02T14:30:14.886Z,36.50
2019-05-02T14:32:44.233Z,35.55
2019-05-02T14:35:28.003Z,36.47
2019-05-02T14:38:14.585Z,36.04
2019-05-02T14:41:12.442Z,36.11
2019-05-02T14:43:53.498Z,36.30
2019-05-02T14:46:29.003Z,36.36
2019-05-02T14:48:56.791Z,36.77
2019-05-02T14:51:27.891Z,37.47
2019-05-02T14:54:02.200Z,38.13
2019-05-02T14:56:43.367Z,40.09
2019-05-02T14:59:15.186Z,40.09
2019-05-02T15:01:47.054Z,40.01
2019-05-02T15:04:16.434Z,39.14
2019-05-02T15:06:47.936Z,38.83
2019-05-02T15:09:24.857Z,38.83
2019-05-02T15:12:03.386Z,38.01
2019-05-02T15:14:58.674Z,38.62
2019-05-02T15:17:33.681Z,38.62
2019-05-02T15:20:02.798Z,38.45
2019-05-02T15:22:37.437Z,38.98
2019-05-02T15:25:07.971Z,39.25
2019-05-02T15:27:41.981Z,39.35
2019-05-02T15:30:09.119Z,39.29
2019-05-02T15:32:47.472Z,39.30
2019-05-02T15:35:36.379Z,39.30
2019-05-02T15:38:06.881Z,39.27
2019-05-02T15:40:48.137Z,39.84
2019-05-02T15:43:09.556Z,39.47
2019-05-02T15:45:42.018Z,39.47
2019-05-02T15:48:09.434Z,38.76
2019-05-02T15:50:48.740Z,39.21
2019-05-02T15:53:16.121Z,39.61
2019-05-02T15:55:45.468Z,38.60
2019-05-02T15:58:22.927Z,39.15
2019-05-02T16:01:15.031Z,38.59
2019-05-02T16:03:47.614Z,39.00
2019-05-02T16:06:23.999Z,39.99
2019-05-02T16:08:47.970Z,40.03
2019-05-02T16:11:18.507Z,40.28
2019-05-02T16:13:52.552Z,40.30
2019-05-02T16:16:21.939Z,39.75
2019-05-02T16:18:52.503Z,39.90
2019-05-02T16:21:43.179Z,39.90
2019-05-02T16:24:23.205Z,39.88
2019-05-02T16:26:56.649Z,38.91
2019-05-02T16:29:28.370Z,38.53
2019-05-02T16:32:18.145Z,38.58
2019-05-02T16:34:54.659Z,38.84
2019-05-02T16:37:24.548Z,39.45
2019-05-02T16:39:53.829Z,39.19
2019-05-02T16:42:23.160Z,39.07
2019-05-02T16:44:54.766Z,39.29
2019-05-02T16:47:23.493Z,39.01
2019-05-02T16:49:56.490Z,39.23
2019-05-02T16:52:24.320Z,39.38
2019-05-02T16:54:53.648Z,39.83
2019-05-02T16:57:24.059Z,39.95
2019-05-02T17:00:01.669Z,40.05
2019-05-02T17:02:25.529Z,40.16
2019-05-02T17:04:55.010Z,40.68
2019-05-02T17:07:42.942Z,40.32
2019-05-02T17:10:22.100Z,40.38
2019-05-02T17:12:52.853Z,40.37
2019-05-02T17:15:42.711Z,40.27
2019-05-02T17:18:13.428Z,40.65
2019-05-02T17:20:46.798Z,41.21
2019-05-02T17:23:14.084Z,41.52
2019-05-02T17:25:43.389Z,42.23
2019-05-02T17:28:13.514Z,42.43
2019-05-02T17:30:43.207Z,42.84
2019-05-02T17:33:16.050Z,43.12
2019-05-02T17:35:49.366Z,43.29
2019-05-02T17:38:19.101Z,43.48
2019-05-02T17:40:45.861Z,43.69
2019-05-02T17:43:15.508Z,43.49
2019-05-02T17:45:45.020Z,43.45
2019-05-02T17:48:16.069Z,43.30
2019-05-02T17:51:03.158Z,43.39
2019-05-02T17:53:33.943Z,43.50
2019-05-02T17:56:03.484Z,43.95
2019-05-02T17:58:33.159Z,44.19
2019-05-02T18:01:04.170Z,44.14
2019-05-02T18:03:35.435Z,44.48
2019-05-02T18:06:07.523Z,44.42
2019-05-02T18:08:35.920Z,44.12
2019-05-02T18:11:05.734Z,44.15
2019-05-02T18:13:35.430Z,44.25
2019-05-02T18:16:07.645Z,43.95
2019-05-02T18:18:37.553Z,44.38
2019-05-02T18:21:07.410Z,43.84
2019-05-02T18:23:36.706Z,43.78
2019-05-02T18:26:06.523Z,43.01
2019-05-02T18:28:46.208Z,43.83
2019-05-02T18:31:06.882Z,43.30
2019-05-02T18:33:41.121Z,43.73
2019-05-02T18:36:11.245Z,43.53
2019-05-02T18:38:41.748Z,43.37
2019-05-02T18:41:12.059Z,43.49
2019-05-02T18:43:45.246Z,43.03
2019-05-02T18:46:14.028Z,42.73
2019-05-02T18:48:46.826Z,43.11
2019-05-02T18:51:17.177Z,42.56
2019-05-02T18:53:46.197Z,42.54
2019-05-02T18:56:15.742Z,42.58
2019-05-02T18:58:46.034Z,42.73
2019-05-02T19:01:17.833Z,41.85
2019-05-02T19:03:51.826Z,41.74
2019-05-02T19:06:21.880Z,42.41
2019-05-02T19:08:52.269Z,42.18
2019-05-02T19:11:26.758Z,42.68
2019-05-02T19:13:55.879Z,42.86
2019-05-02T19:16:28.668Z,42.46
2019-05-02T19:19:01.720Z,42.12
2019-05-02T19:21:35.982Z,42.30
2019-05-02T19:24:05.231Z,41.96
2019-05-02T19:26:36.254Z,42.16
2019-05-02T19:29:22.112Z,41.37
2019-05-02T19:31:53.662Z,41.59
2019-05-02T19:34:26.895Z,40.71
2019-05-02T19:36:57.875Z,41.16
2019-05-02T19:39:32.065Z,41.66
2019-05-02T19:42:02.317Z,40.89
2019-05-02T19:44:33.936Z,40.75
2019-05-02T19:47:08.315Z,41.13
2019-05-02T19:49:37.115Z,41.46
2019-05-02T19:52:08.100Z,40.00
2019-05-02T19:54:41.143Z,40.19
2019-05-02T19:57:11.863Z,39.83
2019-05-02T19:59:43.449Z,39.70
2019-05-02T20:02:14.500Z,40.30
2019-05-02T20:04:45.918Z,40.78
2019-05-02T20:07:16.530Z,42.61
2019-05-02T20:09:49.662Z,45.36
2019-05-02T20:12:21.930Z,46.59
2019-05-02T20:14:53.467Z,47.26
2019-05-02T20:17:24.029Z,48.21
2019-05-02T20:19:57.877Z,49.02
2019-05-02T20:22:31.550Z,49.28
2019-05-02T20:25:03.858Z,49.75
2019-05-02T20:27:33.819Z,50.93
2019-05-02T20:30:03.521Z,52.45
2019-05-02T20:32:33.025Z,52.77
2019-05-02T20:35:02.844Z,53.77
2019-05-02T20:37:32.563Z,53.89
2019-05-02T20:40:02.892Z,54.41
2019-05-02T20:42:32.506Z,54.76
2019-05-02T20:45:02.411Z,55.18
2019-05-02T20:47:32.268Z,55.57
2019-05-02T20:50:02.665Z,55.78
2019-05-02T20:52:32.442Z,56.07
2019-05-02T20:55:01.900Z,56.29
2019-05-02T20:57:31.767Z,56.52
2019-05-02T21:00:01.796Z,57.07
2019-05-02T21:02:31.900Z,57.16
2019-05-02T21:05:02.730Z,57.42
2019-05-02T21:07:50.149Z,57.95
2019-05-02T21:10:24.256Z,58.63
2019-05-02T21:12:53.568Z,58.76
2019-05-02T21:15:22.843Z,58.56
2019-05-02T21:17:52.151Z,58.75
2019-05-02T21:20:21.988Z,58.76
2019-05-02T21:22:52.998Z,58.26
2019-05-02T21:25:23.235Z,58.41
2019-05-02T21:27:52.844Z,57.83
2019-05-02T21:30:26.626Z,57.90
2019-05-02T21:32:56.052Z,58.09
2019-05-02T21:35:25.363Z,58.44
2019-05-02T21:37:54.763Z,59.12
2019-05-02T21:40:25.776Z,59.59
2019-05-02T21:42:55.059Z,59.84
2019-05-02T21:45:26.750Z,59.99
2019-05-02T21:47:56.142Z,60.24
2019-05-02T21:50:43.219Z,60.34
2019-05-02T21:53:54.971Z,60.67
2019-05-02T21:56:33.855Z,60.69
2019-05-02T21:59:07.767Z,60.89
2019-05-02T22:01:44.354Z,61.37
2019-05-02T22:04:13.750Z,61.46
2019-05-02T22:06:43.030Z,61.59
2019-05-02T22:09:12.913Z,61.07
2019-05-02T22:11:43.010Z,61.25
2019-05-02T22:14:13.287Z,61.58
2019-05-02T22:16:42.994Z,62.06
2019-05-02T22:19:12.704Z,62.33
2019-05-02T22:21:43.023Z,62.71
2019-05-02T22:24:14.462Z,63.16
2019-05-02T22:26:49.600Z,63.02
2019-05-02T22:29:18.924Z,63.50
2019-05-02T22:31:48.245Z,64.13
2019-05-02T22:34:17.603Z,64.41
2019-05-02T22:36:46.889Z,64.72
2019-05-02T22:39:33.802Z,64.87
2019-05-02T22:42:04.587Z,65.45
2019-05-02T22:44:35.577Z,65.85
2019-05-02T22:47:04.826Z,65.05
2019-05-02T22:49:34.116Z,65.27
2019-05-02T22:52:03.646Z,65.10
2019-05-02T22:54:33.865Z,65.31
2019-05-02T22:57:03.303Z,65.42
2019-05-02T22:59:32.671Z,65.99
2019-05-02T23:02:02.272Z,66.16
2019-05-02T23:04:32.539Z,66.62
2019-05-02T23:07:03.213Z,66.82
2019-05-02T23:09:32.599Z,67.79
2019-05-02T23:12:03.012Z,68.05
2019-05-02T23:14:32.625Z,67.94
2019-05-02T23:17:02.325Z,68.01
2019-05-02T23:19:31.871Z,68.59
2019-05-02T23:22:02.051Z,69.05
2019-05-02T23:24:53.393Z,69.55
2019-05-02T23:27:38.735Z,69.55
2019-05-02T23:30:11.592Z,69.02
2019-05-02T23:32:42.370Z,68.82
2019-05-02T23:35:12.302Z,68.69
2019-05-02T23:37:42.348Z,68.69
2019-05-02T23:40:12.465Z,68.89
2019-05-02T23:42:41.840Z,68.65
2019-05-02T23:45:12.179Z,68.81
2019-05-02T23:47:42.174Z,68.50
2019-05-02T23:50:12.197Z,68.93
2019-05-02T23:52:41.491Z,68.52
2019-05-02T23:55:12.197Z,68.30
2019-05-02T23:57:42.167Z,68.19
